createdAt,value
2023-03-05T00:01:41.335Z,101422.40
2023-03-05T00:04:14.645Z,101416.60
2023-03-05T00:06:43.876Z,101424.00
2023-03-05T00:09:12.769Z,101414.80
2023-03-05T00:11:40.681Z,101417.80
2023-03-05T00:14:11.096Z,101415.60
2023-03-05T00:16:40.647Z,101413.00
2023-03-05T00:19:09.114Z,101409.40
2023-03-05T00:21:42.430Z,101407.40
2023-03-05T00:24:18.149Z,101409.20
2023-03-05T00:26:47.182Z,101403.60
2023-03-05T00:29:19.734Z,101401.80
2023-03-05T00:31:51.421Z,101399.60
2023-03-05T00:34:19.887Z,101392.20
2023-03-05T00:36:51.972Z,101389.60
2023-03-05T00:39:22.312Z,101384.20
2023-03-05T00:41:50.635Z,101387.60
2023-03-05T00:44:19.594Z,101378.60
2023-03-05T00:46:48.851Z,101373.60
2023-03-05T00:49:16.992Z,101366.80
2023-03-05T00:51:45.537Z,101367.80
2023-03-05T00:54:13.323Z,101375.80
2023-03-05T00:56:44.385Z,101373.80
2023-03-05T00:59:13.715Z,101377.40
2023-03-05T01:01:41.908Z,101372.80
2023-03-05T01:04:10.551Z,101367.60
2023-03-05T01:06:42.852Z,101364.80
2023-03-05T01:09:10.867Z,101365.80
2023-03-05T01:11:41.095Z,101364.40
2023-03-05T01:14:08.892Z,101362.60
2023-03-05T01:16:38.090Z,101359.00
2023-03-05T01:19:05.953Z,101356.80
2023-03-05T01:21:37.036Z,101358.60
2023-03-05T01:24:06.650Z,101353.60
2023-03-05T01:26:35.356Z,101342.20
2023-03-05T01:29:04.485Z,101346.20
2023-03-05T01:31:32.326Z,101351.80
2023-03-05T01:34:00.258Z,101345.00
2023-03-05T01:36:28.287Z,101339.00
2023-03-05T01:38:58.730Z,101334.40
2023-03-05T01:41:28.466Z,101337.40
2023-03-05T01:43:56.359Z,101334.60
2023-03-05T01:46:34.909Z,101333.00
2023-03-05T01:49:25.423Z,101329.80
2023-03-05T01:52:18.214Z,101326.00
2023-03-05T01:55:08.444Z,101324.40
2023-03-05T01:57:43.504Z,101318.00
2023-03-05T02:00:25.720Z,101310.80
2023-03-05T02:02:54.589Z,101308.40
2023-03-05T02:05:38.213Z,101309.60
2023-03-05T02:08:11.608Z,101302.20
2023-03-05T02:10:44.985Z,101303.60
2023-03-05T02:13:19.290Z,101298.20
2023-03-05T02:15:50.044Z,101295.40
2023-03-05T02:18:20.620Z,101298.80
2023-03-05T02:20:58.094Z,101286.40
2023-03-05T02:23:34.066Z,101283.80
2023-03-05T02:26:10.408Z,101282.80
2023-03-05T02:29:00.735Z,101279.60
2023-03-05T02:31:29.346Z,101279.00
2023-03-05T02:33:58.936Z,101274.40
2023-03-05T02:36:27.063Z,101265.20
2023-03-05T02:38:57.542Z,101260.40
2023-03-05T02:41:26.115Z,101258.40
2023-03-05T02:43:53.796Z,101257.20
2023-03-05T02:46:24.185Z,101253.80
2023-03-05T02:48:52.206Z,101255.80
2023-03-05T02:51:20.951Z,101249.00
2023-03-05T02:53:49.174Z,101251.00
2023-03-05T02:56:17.032Z,101243.20
2023-03-05T02:58:44.972Z,101239.20
2023-03-05T03:01:12.890Z,101230.60
2023-03-05T03:03:41.005Z,101230.00
2023-03-05T03:06:08.884Z,101229.60
2023-03-05T03:08:37.124Z,101217.40
2023-03-05T03:11:12.697Z,101209.60
2023-03-05T03:13:41.711Z,101208.00
2023-03-05T03:16:13.652Z,101202.00
2023-03-05T03:18:42.381Z,101196.60
2023-03-05T03:21:22.265Z,101190.40
2023-03-05T03:23:51.075Z,101188.00
2023-03-05T03:26:22.355Z,101181.80
2023-03-05T03:28:52.361Z,101177.20
2023-03-05T03:31:20.293Z,101177.00
2023-03-05T03:33:48.090Z,101177.00
2023-03-05T03:36:16.859Z,101178.00
2023-03-05T03:38:45.386Z,101177.40
2023-03-05T03:41:17.141Z,101174.00
2023-03-05T03:43:45.862Z,101172.80
2023-03-05T03:46:14.029Z,101177.20
2023-03-05T03:48:42.159Z,101171.80
2023-03-05T03:51:10.455Z,101175.00
2023-03-05T03:53:41.304Z,101171.20
2023-03-05T03:56:09.576Z,101171.60
2023-03-05T03:58:37.653Z,101169.40
2023-03-05T04:01:05.567Z,101168.40
2023-03-05T04:03:33.429Z,101167.80
2023-03-05T04:06:02.231Z,101154.20
2023-03-05T04:08:30.737Z,101165.60
2023-03-05T04:11:02.827Z,101166.20
2023-03-05T04:13:31.909Z,101168.80
2023-03-05T04:16:00.434Z,101167.40
2023-03-05T04:18:29.463Z,101164.00
2023-03-05T04:20:59.157Z,101160.40
2023-03-05T04:23:27.128Z,101160.60
2023-03-05T04:25:54.876Z,101159.00
2023-03-05T04:28:24.826Z,101150.80
2023-03-05T04:30:53.867Z,101148.80
2023-03-05T04:33:21.920Z,101154.80
2023-03-05T04:35:53.004Z,101163.00
2023-03-05T04:38:21.910Z,101150.40
2023-03-05T04:40:49.631Z,101142.40
2023-03-05T04:43:17.318Z,101140.00
2023-03-05T04:45:45.865Z,101145.20
2023-03-05T04:48:14.010Z,101141.40
2023-03-05T04:50:41.735Z,101145.80
2023-03-05T04:53:11.364Z,101144.00
2023-03-05T04:55:39.079Z,101134.40
2023-03-05T04:58:06.908Z,101131.80
2023-03-05T05:00:34.875Z,101132.80
2023-03-05T05:03:02.768Z,101126.00
2023-03-05T05:05:33.606Z,101124.60
2023-03-05T05:08:01.600Z,101121.60
2023-03-05T05:10:31.749Z,101114.00
2023-03-05T05:12:59.648Z,101117.80
2023-03-05T05:15:27.350Z,101117.20
2023-03-05T05:17:55.183Z,101111.60
2023-03-05T05:20:25.097Z,101110.60
2023-03-05T05:22:52.985Z,101108.40
2023-03-05T05:25:20.670Z,101105.60
2023-03-05T05:27:50.252Z,101100.40
2023-03-05T05:30:20.189Z,101103.00
2023-03-05T05:32:49.353Z,101109.00
2023-03-05T05:35:17.460Z,101096.80
2023-03-05T05:37:46.458Z,101110.00
2023-03-05T05:40:14.812Z,101111.80
2023-03-05T05:42:42.710Z,101110.80
2023-03-05T05:45:12.016Z,101110.20
2023-03-05T05:47:39.805Z,101105.80
2023-03-05T05:50:08.666Z,101107.20
2023-03-05T05:52:36.866Z,101099.80
2023-03-05T05:55:06.241Z,101107.00
2023-03-05T05:57:35.444Z,101107.00
2023-03-05T06:00:11.408Z,101100.80
2023-03-05T06:02:41.645Z,101098.00
2023-03-05T06:05:14.924Z,101098.60
2023-03-05T06:07:43.712Z,101102.00
2023-03-05T06:10:12.873Z,101098.80
2023-03-05T06:12:41.535Z,101101.80
2023-03-05T06:15:09.977Z,101106.60
2023-03-05T06:17:39.394Z,101103.60
2023-03-05T06:20:09.607Z,101101.40
2023-03-05T06:22:39.760Z,101104.20
2023-03-05T06:25:09.589Z,101097.40
2023-03-05T06:27:39.793Z,101097.00
2023-03-05T06:30:10.542Z,101100.20
2023-03-05T06:32:39.234Z,101095.80
2023-03-05T06:35:09.242Z,101101.40
2023-03-05T06:37:39.247Z,101101.00
2023-03-05T06:40:08.839Z,101100.40
2023-03-05T06:42:36.638Z,101109.40
2023-03-05T06:45:06.265Z,101105.80
2023-03-05T06:47:36.380Z,101106.60
2023-03-05T06:50:05.141Z,101112.00
2023-03-05T06:52:32.892Z,101107.60
2023-03-05T06:55:00.725Z,101107.20
2023-03-05T06:57:29.567Z,101098.80
2023-03-05T06:59:57.623Z,101095.80
2023-03-05T07:02:26.697Z,101090.40
2023-03-05T07:04:56.010Z,101087.60
2023-03-05T07:07:23.894Z,101080.80
2023-03-05T07:09:53.269Z,101079.80
2023-03-05T07:12:21.222Z,101080.00
2023-03-05T07:14:49.432Z,101074.00
2023-03-05T07:17:18.240Z,101077.00
2023-03-05T07:19:46.290Z,101070.80
2023-03-05T07:22:16.332Z,101072.00
2023-03-05T07:24:44.688Z,101082.40
2023-03-05T07:27:13.176Z,101078.20
2023-03-05T07:29:40.938Z,101082.00
2023-03-05T07:32:08.731Z,101081.60
2023-03-05T07:34:38.517Z,101080.60
2023-03-05T07:37:06.795Z,101074.00
2023-03-05T07:39:35.716Z,101069.40
2023-03-05T07:42:03.939Z,101063.60
2023-03-05T07:44:33.853Z,101066.80
2023-03-05T07:47:02.003Z,101058.20
2023-03-05T07:49:30.232Z,101054.00
2023-03-05T07:51:58.202Z,101053.60
2023-03-05T07:54:26.150Z,101048.80
2023-03-05T07:56:55.304Z,101045.20
2023-03-05T07:59:23.065Z,101042.00
2023-03-05T08:01:52.256Z,101038.80
2023-03-05T08:04:20.705Z,101038.80
2023-03-05T08:06:50.093Z,101039.20
2023-03-05T08:09:22.285Z,101035.80
2023-03-05T08:11:50.896Z,101040.80
2023-03-05T08:14:18.660Z,101032.40
2023-03-05T08:16:52.484Z,101026.80
2023-03-05T08:19:21.409Z,101027.40
2023-03-05T08:21:52.170Z,101020.80
2023-03-05T08:24:20.559Z,101014.20
2023-03-05T08:26:48.381Z,101021.20
2023-03-05T08:29:16.086Z,101007.60
2023-03-05T08:31:48.794Z,101015.40
2023-03-05T08:34:16.659Z,101013.40
2023-03-05T08:36:44.598Z,101003.80
2023-03-05T08:39:12.408Z,101013.80
2023-03-05T08:41:41.128Z,100999.80
2023-03-05T08:44:09.344Z,101002.00
2023-03-05T08:46:43.343Z,101002.40
2023-03-05T08:49:11.155Z,101001.80
2023-03-05T08:51:39.401Z,101002.20
2023-03-05T08:54:08.462Z,101003.40
2023-03-05T08:56:37.626Z,100998.20
2023-03-05T08:59:06.837Z,100992.80
2023-03-05T09:01:35.280Z,100986.40
2023-03-05T09:04:04.061Z,100987.80
2023-03-05T09:06:32.075Z,100987.00
2023-03-05T09:09:02.525Z,100981.00
2023-03-05T09:11:31.129Z,100977.80
2023-03-05T09:13:58.834Z,100975.00
2023-03-05T09:16:29.206Z,100979.60
2023-03-05T09:18:59.930Z,100973.00
2023-03-05T09:21:28.661Z,100965.20
2023-03-05T09:23:59.745Z,100961.20
2023-03-05T09:26:27.777Z,100957.80
2023-03-05T09:28:55.550Z,100949.80
2023-03-05T09:31:24.027Z,100945.20
2023-03-05T09:33:51.966Z,100948.60
2023-03-05T09:36:28.026Z,100942.00
2023-03-05T09:38:56.266Z,100941.60
2023-03-05T09:42:10.215Z,100935.80
2023-03-05T09:44:52.062Z,100933.80
2023-03-05T09:47:53.373Z,100931.00
2023-03-05T09:50:51.179Z,100927.80
2023-03-05T09:53:48.625Z,100925.60
2023-03-05T09:56:42.862Z,100919.00
2023-03-05T09:59:43.625Z,100907.20
2023-03-05T10:02:26.069Z,100919.20
2023-03-05T10:05:10.254Z,100924.80
2023-03-05T10:07:45.589Z,100934.60
2023-03-05T10:10:28.754Z,100938.00
2023-03-05T10:13:02.468Z,100921.20
2023-03-05T10:16:06.815Z,100925.80
2023-03-05T10:19:00.728Z,100924.40
2023-03-05T10:21:44.993Z,100918.60
2023-03-05T10:25:10.478Z,100911.40
2023-03-05T10:28:10.491Z,100906.80
2023-03-05T10:31:03.409Z,100903.80
2023-03-05T10:34:12.524Z,100894.20
2023-03-05T10:37:39.856Z,100888.40
2023-03-05T10:40:21.019Z,100882.60
2023-03-05T10:43:10.354Z,100885.60
2023-03-05T10:45:44.751Z,100877.20
2023-03-05T10:48:42.939Z,100872.20
2023-03-05T10:51:35.128Z,100876.20
2023-03-05T10:54:17.116Z,100864.40
2023-03-05T10:56:46.087Z,100862.00
2023-03-05T10:59:14.137Z,100869.40
2023-03-05T11:01:42.007Z,100861.60
2023-03-05T11:04:32.214Z,100862.20
2023-03-05T11:06:59.996Z,100855.00
2023-03-05T11:09:33.269Z,100855.80
2023-03-05T11:12:22.129Z,100853.20
2023-03-05T11:15:17.822Z,100852.00
2023-03-05T11:18:22.457Z,100859.20
2023-03-05T11:20:52.863Z,100861.00
2023-03-05T11:23:24.077Z,100854.00
2023-03-05T11:26:02.548Z,100849.20
2023-03-05T11:28:59.638Z,100853.80
2023-03-05T11:31:36.029Z,100853.80
2023-03-05T11:34:13.482Z,100852.40
2023-03-05T11:37:03.733Z,100843.60
2023-03-05T11:39:37.274Z,100842.60
2023-03-05T11:42:17.060Z,100837.40
2023-03-05T11:45:05.239Z,100836.20
2023-03-05T11:47:47.620Z,100840.40
2023-03-05T11:50:30.496Z,100839.60
2023-03-05T11:53:09.694Z,100835.40
2023-03-05T11:56:24.247Z,100829.40
2023-03-05T11:59:02.958Z,100838.00
2023-03-05T12:01:48.532Z,100835.40
2023-03-05T12:04:20.054Z,100821.40
2023-03-05T12:07:03.065Z,100824.80
2023-03-05T12:09:49.541Z,100819.60
2023-03-05T12:12:48.286Z,100811.20
2023-03-05T12:15:38.086Z,100817.60
2023-03-05T12:18:25.148Z,100812.60
2023-03-05T12:21:07.283Z,100810.40
2023-03-05T12:23:55.116Z,100806.40
2023-03-05T12:27:04.657Z,100797.80
2023-03-05T12:29:52.902Z,100786.40
2023-03-05T12:32:31.148Z,100795.80
2023-03-05T12:35:00.274Z,100787.20
2023-03-05T12:37:27.954Z,100789.60
2023-03-05T12:40:30.832Z,100788.60
2023-03-05T12:43:03.419Z,100789.60
2023-03-05T12:45:36.448Z,100791.40
2023-03-05T12:48:04.056Z,100792.80
2023-03-05T12:50:37.651Z,100789.40
2023-03-05T12:53:18.342Z,100793.20
2023-03-05T12:56:12.906Z,100790.60
2023-03-05T12:58:50.592Z,100794.20
2023-03-05T13:01:57.482Z,100792.20
2023-03-05T13:04:36.844Z,100789.60
2023-03-05T13:07:15.197Z,100789.00
2023-03-05T13:09:59.283Z,100794.20
2023-03-05T13:12:31.407Z,100793.20
2023-03-05T13:15:08.207Z,100783.40
2023-03-05T13:17:56.431Z,100787.80
2023-03-05T13:20:40.633Z,100781.40
2023-03-05T13:23:29.724Z,100781.20
2023-03-05T13:26:19.058Z,100776.60
2023-03-05T13:29:11.744Z,100777.80
2023-03-05T13:31:48.810Z,100776.20
2023-03-05T13:34:46.092Z,100771.40
2023-03-05T13:37:26.356Z,100772.80
2023-03-05T13:40:15.785Z,100769.00
2023-03-05T13:42:44.671Z,100775.00
2023-03-05T13:45:32.337Z,100762.60
2023-03-05T13:48:05.101Z,100758.60
2023-03-05T13:50:37.394Z,100758.00
2023-03-05T13:53:34.145Z,100753.20
2023-03-05T13:56:09.170Z,100758.20
2023-03-05T13:58:54.290Z,100757.40
2023-03-05T14:01:52.756Z,100754.20
2023-03-05T14:04:29.561Z,100752.20
2023-03-05T14:07:27.637Z,100749.60
2023-03-05T14:09:57.155Z,100750.80
2023-03-05T14:12:39.433Z,100745.20
2023-03-05T14:15:33.896Z,100741.60
2023-03-05T14:18:28.049Z,100735.60
2023-03-05T14:21:01.862Z,100729.80
2023-03-05T14:23:32.484Z,100734.60
2023-03-05T14:26:28.653Z,100735.60
2023-03-05T14:29:20.072Z,100730.60
2023-03-05T14:31:57.174Z,100726.40
2023-03-05T14:34:38.862Z,100727.20
2023-03-05T14:37:26.543Z,100717.80
2023-03-05T14:39:59.606Z,100721.00
2023-03-05T14:42:33.709Z,100711.00
2023-03-05T14:45:14.749Z,100711.40
2023-03-05T14:47:44.272Z,100705.20
2023-03-05T14:50:22.157Z,100710.60
2023-03-05T14:52:56.487Z,100706.40
2023-03-05T14:55:30.306Z,100708.20
2023-03-05T14:58:12.310Z,100705.60
2023-03-05T15:00:42.347Z,100700.80
2023-03-05T15:03:16.668Z,100699.20
2023-03-05T15:05:49.749Z,100699.60
2023-03-05T15:08:25.787Z,100700.00
2023-03-05T15:10:54.944Z,100696.60
2023-03-05T15:13:26.424Z,100689.60
2023-03-05T15:15:55.161Z,100688.80
2023-03-05T15:18:23.809Z,100686.20
2023-03-05T15:20:53.160Z,100681.80
2023-03-05T15:23:21.188Z,100685.80
2023-03-05T15:25:50.697Z,100679.40
2023-03-05T15:28:19.228Z,100677.00
2023-03-05T15:30:49.525Z,100677.00
2023-03-05T15:33:18.673Z,100675.80
2023-03-05T15:35:46.429Z,100671.60
2023-03-05T15:38:16.432Z,100672.20
2023-03-05T15:40:46.113Z,100673.40
2023-03-05T15:43:15.106Z,100669.60
2023-03-05T15:45:42.886Z,100668.20
2023-03-05T15:48:13.065Z,100665.80
2023-03-05T15:50:43.697Z,100663.60
2023-03-05T15:53:18.662Z,100658.60
2023-03-05T15:55:46.637Z,100655.40
2023-03-05T15:58:17.820Z,100652.80
2023-03-05T16:00:47.591Z,100658.60
2023-03-05T16:03:16.516Z,100656.20
2023-03-05T16:05:45.179Z,100652.00
2023-03-05T16:08:17.794Z,100652.60
2023-03-05T16:10:48.487Z,100647.00
2023-03-05T16:13:21.583Z,100649.60
2023-03-05T16:15:53.347Z,100647.60
2023-03-05T16:18:23.412Z,100646.00
2023-03-05T16:20:52.528Z,100649.40
2023-03-05T16:23:22.075Z,100653.40
2023-03-05T16:25:50.404Z,100655.60
2023-03-05T16:28:19.227Z,100657.80
2023-03-05T16:30:58.367Z,100647.80
2023-03-05T16:33:26.204Z,100647.20
2023-03-05T16:36:27.442Z,100652.40
2023-03-05T16:38:59.493Z,100645.60
2023-03-05T16:41:28.100Z,100648.20
2023-03-05T16:43:57.005Z,100647.00
2023-03-05T16:46:30.142Z,100646.40
2023-03-05T16:48:58.681Z,100650.00
2023-03-05T16:51:32.110Z,100644.60
2023-03-05T16:54:09.612Z,100647.00
2023-03-05T16:56:38.730Z,100642.80
2023-03-05T16:59:09.090Z,100642.80
2023-03-05T17:01:37.303Z,100639.20
2023-03-05T17:04:05.735Z,100641.40
2023-03-05T17:06:36.815Z,100640.20
2023-03-05T17:09:05.191Z,100639.00
2023-03-05T17:11:34.364Z,100637.00
2023-03-05T17:14:08.377Z,100637.80
2023-03-05T17:16:36.618Z,100638.40
2023-03-05T17:19:06.886Z,100643.20
2023-03-05T17:21:35.669Z,100645.40
2023-03-05T17:24:05.021Z,100647.20
2023-03-05T17:26:38.326Z,100649.80
2023-03-05T17:29:07.477Z,100645.40
2023-03-05T17:31:37.178Z,100650.20
2023-03-05T17:34:07.014Z,100648.20
2023-03-05T17:36:35.984Z,100650.00
2023-03-05T17:39:04.682Z,100648.80
2023-03-05T17:41:33.502Z,100644.80
2023-03-05T17:44:01.276Z,100649.60
2023-03-05T17:46:33.742Z,100644.80
2023-03-05T17:49:01.768Z,100646.00
2023-03-05T17:51:30.645Z,100647.00
2023-03-05T17:53:58.840Z,100648.00
2023-03-05T17:56:26.993Z,100645.60
2023-03-05T17:58:54.974Z,100647.00
2023-03-05T18:01:33.059Z,100645.20
2023-03-05T18:04:02.039Z,100645.60
2023-03-05T18:06:29.903Z,100641.40
2023-03-05T18:08:57.903Z,100646.40
2023-03-05T18:11:27.600Z,100640.20
2023-03-05T18:13:55.702Z,100631.00
2023-03-05T18:16:25.457Z,100632.20
2023-03-05T18:18:54.433Z,100631.80
2023-03-05T18:21:25.978Z,100630.80
2023-03-05T18:23:57.947Z,100631.20
2023-03-05T18:26:25.863Z,100631.00
2023-03-05T18:28:54.585Z,100629.80
2023-03-05T18:31:22.406Z,100623.60
2023-03-05T18:33:51.157Z,100622.60
2023-03-05T18:36:19.411Z,100625.00
2023-03-05T18:38:47.497Z,100623.80
2023-03-05T18:41:27.689Z,100620.20
2023-03-05T18:43:56.159Z,100615.40
2023-03-05T18:46:24.696Z,100615.40
2023-03-05T18:48:52.730Z,100618.60
2023-03-05T18:51:22.176Z,100613.80
2023-03-05T18:53:51.871Z,100610.80
2023-03-05T18:56:19.828Z,100613.60
2023-03-05T18:58:48.058Z,100614.80
2023-03-05T19:01:18.585Z,100613.00
2023-03-05T19:03:49.353Z,100612.80
2023-03-05T19:06:18.782Z,100610.80
2023-03-05T19:08:47.622Z,100613.40
2023-03-05T19:11:21.288Z,100610.40
2023-03-05T19:13:51.620Z,100609.20
2023-03-05T19:16:24.409Z,100610.40
2023-03-05T19:19:20.118Z,100614.80
2023-03-05T19:21:59.920Z,100603.00
2023-03-05T19:24:30.661Z,100600.00
2023-03-05T19:27:01.153Z,100596.60
2023-03-05T19:29:34.660Z,100596.80
2023-03-05T19:32:03.211Z,100595.00
2023-03-05T19:34:32.677Z,100594.60
2023-03-05T19:37:04.552Z,100588.60
2023-03-05T19:39:33.679Z,100591.20
2023-03-05T19:42:02.285Z,100590.80
2023-03-05T19:44:31.998Z,100587.60
2023-03-05T19:47:00.578Z,100591.00
2023-03-05T19:49:29.694Z,100590.80
2023-03-05T19:51:57.898Z,100589.40
2023-03-05T19:54:28.093Z,100591.80
2023-03-05T19:56:59.149Z,100588.20
2023-03-05T19:59:27.793Z,100592.40
2023-03-05T20:01:57.519Z,100590.20
2023-03-05T20:04:25.988Z,100587.60
2023-03-05T20:06:54.092Z,100584.20
2023-03-05T20:09:22.160Z,100578.60
2023-03-05T20:11:51.362Z,100574.80
2023-03-05T20:14:19.868Z,100573.40
2023-03-05T20:16:48.329Z,100568.40
2023-03-05T20:19:20.837Z,100564.80
2023-03-05T20:21:48.601Z,100565.40
2023-03-05T20:24:20.983Z,100563.00
2023-03-05T20:26:49.223Z,100563.80
2023-03-05T20:29:18.813Z,100565.20
2023-03-05T20:31:49.972Z,100555.60
2023-03-05T20:34:19.782Z,100555.00
2023-03-05T20:36:47.881Z,100553.80
2023-03-05T20:39:15.835Z,100557.20
2023-03-05T20:41:45.751Z,100553.80
2023-03-05T20:44:14.551Z,100550.40
2023-03-05T20:46:53.955Z,100553.00
2023-03-05T20:49:21.982Z,100550.80
2023-03-05T20:51:51.120Z,100557.40
2023-03-05T20:54:22.351Z,100559.80
2023-03-05T20:56:50.170Z,100553.80
2023-03-05T20:59:18.495Z,100555.40
2023-03-05T21:01:47.348Z,100553.40
2023-03-05T21:04:16.428Z,100557.80
2023-03-05T21:06:44.573Z,100558.40
2023-03-05T21:09:12.299Z,100550.40
2023-03-05T21:11:41.144Z,100548.00
2023-03-05T21:14:09.544Z,100545.00
2023-03-05T21:16:38.291Z,100543.00
2023-03-05T21:19:06.040Z,100545.60
2023-03-05T21:21:33.737Z,100537.80
2023-03-05T21:24:01.447Z,100539.40
2023-03-05T21:26:29.560Z,100534.60
2023-03-05T21:28:58.047Z,100527.80
2023-03-05T21:31:26.557Z,100525.00
2023-03-05T21:33:57.057Z,100522.20
2023-03-05T21:36:25.644Z,100519.60
2023-03-05T21:38:53.586Z,100520.20
2023-03-05T21:41:23.156Z,100521.20
2023-03-05T21:43:50.917Z,100519.60
2023-03-05T21:46:18.789Z,100515.40
2023-03-05T21:48:46.498Z,100512.60
2023-03-05T21:51:17.085Z,100511.20
2023-03-05T21:53:45.033Z,100514.20
2023-03-05T21:56:18.185Z,100515.00
2023-03-05T21:58:46.729Z,100512.00
2023-03-05T22:01:18.350Z,100516.20
2023-03-05T22:03:47.905Z,100515.20
2023-03-05T22:06:19.544Z,100514.80
2023-03-05T22:08:49.303Z,100511.40
2023-03-05T22:11:21.045Z,100508.40
2023-03-05T22:13:49.554Z,100508.40
2023-03-05T22:16:27.853Z,100504.80
2023-03-05T22:18:56.097Z,100504.40
2023-03-05T22:21:28.067Z,100504.00
2023-03-05T22:23:57.850Z,100500.40
2023-03-05T22:26:36.075Z,100495.20
2023-03-05T22:29:11.819Z,100495.40
2023-03-05T22:31:42.171Z,100493.00
2023-03-05T22:34:11.302Z,100486.00
2023-03-05T22:36:40.532Z,100491.80
2023-03-05T22:39:10.968Z,100491.20
2023-03-05T22:41:42.290Z,100485.20
2023-03-05T22:44:12.683Z,100490.40
2023-03-05T22:46:40.875Z,100491.60
2023-03-05T22:49:11.718Z,100485.60
2023-03-05T22:51:39.394Z,100487.00
2023-03-05T22:54:07.224Z,100481.80
2023-03-05T22:56:35.656Z,100478.60
2023-03-05T22:59:03.945Z,100474.00
2023-03-05T23:01:31.927Z,100472.00
2023-03-05T23:04:05.581Z,100474.20
2023-03-05T23:06:33.691Z,100475.80
2023-03-05T23:09:04.024Z,100476.20
2023-03-05T23:11:31.728Z,100470.00
2023-03-05T23:14:00.146Z,100471.00
2023-03-05T23:16:28.972Z,100467.60
2023-03-05T23:18:58.482Z,100464.60
2023-03-05T23:21:26.492Z,100459.00
2023-03-05T23:23:56.559Z,100459.80
2023-03-05T23:26:25.319Z,100453.40
2023-03-05T23:28:53.134Z,100456.60
2023-03-05T23:31:21.290Z,100460.00
2023-03-05T23:33:50.831Z,100456.80
2023-03-05T23:36:19.996Z,100455.20
2023-03-05T23:38:48.664Z,100452.40
2023-03-05T23:41:16.461Z,100451.80
2023-03-05T23:43:44.435Z,100450.80
2023-03-05T23:46:12.551Z,100454.20
2023-03-05T23:48:41.586Z,100447.00
2023-03-05T23:51:10.869Z,100445.40
2023-03-05T23:53:38.574Z,100445.00
2023-03-05T23:56:11.518Z,100444.40
2023-03-05T23:58:39.777Z,100441.40
